Time;durP1;ratioP1;P1;durP2;ratioP2;P2;SDS_P1;SDS_P2;PMS_P1;PMS_P2;Temp;Humidity;BMP_temperature;BMP_pressure;BME280_temperature;BME280_humidity;BME280_pressure;Samples;Min_cycle;Max_cycle;Signal;HPM_P1;HPM_P2
2023/10/07 00:02:12;;;;;;;18.35;7.60;;;;;;;;;;5094929;28;20208;-68
2023/10/07 00:04:41;;;;;;;13.85;7.07;;;;;;;;;;5097408;28;20616;-73
2023/10/07 00:07:10;;;;;;;16.10;6.95;;;;;;;;;;5101036;28;20177;-73
2023/10/07 00:09:43;;;;;;;20.80;7.00;;;;;;;;;;5104183;28;20290;-72
2023/10/07 00:12:16;;;;;;;16.63;6.57;;;;;;;;;;5092998;28;20194;-73
2023/10/07 00:14:43;;;;;;;15.38;6.82;;;;;;;;;;5089364;28;20188;-68
2023/10/07 00:17:17;;;;;;;15.18;6.55;;;;;;;;;;5102405;28;20638;-72
2023/10/07 00:19:46;;;;;;;19.17;6.22;;;;;;;;;;5095043;28;20183;-71
2023/10/07 00:22:19;;;;;;;10.98;5.88;;;;;;;;;;5098927;28;20292;-68
2023/10/07 00:24:48;;;;;;;14.27;6.18;;;;;;;;;;5095877;28;20558;-70
2023/10/07 00:27:31;;;;;;;23.05;6.70;;;;;;;;;;5079273;28;20180;-73
2023/10/07 00:30:00;;;;;;;16.55;6.03;;;;;;;;;;5101846;28;20208;-72
2023/10/07 00:32:29;;;;;;;19.05;6.15;;;;;;;;;;5089502;28;20620;-72
2023/10/07 00:34:59;;;;;;;12.73;5.85;;;;;;;;;;5092073;28;20183;-72
2023/10/07 00:37:25;;;;;;;13.63;5.35;;;;;;;;;;5079355;28;20246;-72
2023/10/07 00:39:52;;;;;;;20.42;5.95;;;;;;;;;;5075884;28;20593;-73
2023/10/07 00:42:18;;;;;;;12.10;5.10;;;;;;;;;;5066431;28;20186;-72
2023/10/07 00:44:47;;;;;;;12.90;5.53;;;;;;;;;;5081052;28;20188;-74
2023/10/07 00:47:12;;;;;;;16.83;5.95;;;;;;;;;;5068744;28;20903;-72
2023/10/07 00:55:22;;;;;;;18.65;5.32;;;;;;;;;;5058882;28;20238;-72
2023/10/07 00:57:53;;;;;;;15.32;5.40;;;;;;;;;;5074023;28;20202;-71
2023/10/07 01:02:45;;;;;;;14.07;5.30;;;;;;;;;;5089994;28;20674;-73
2023/10/07 01:05:14;;;;;;;15.13;5.95;;;;;;;;;;5089593;28;20188;-71
2023/10/07 01:07:48;;;;;;;16.45;5.50;;;;;;;;;;5088629;28;20188;-73
2023/10/07 01:10:16;;;;;;;17.35;5.63;;;;;;;;;;5071163;28;20196;-72
2023/10/07 01:12:44;;;;;;;13.30;5.95;;;;;;;;;;5070686;28;20196;-74
2023/10/07 01:15:22;;;;;;;16.98;5.57;;;;;;;;;;5061361;28;20695;-72
2023/10/07 01:17:53;;;;;;;17.23;6.28;;;;;;;;;;5076956;28;20215;-74
2023/10/07 01:20:22;;;;;;;16.75;5.97;;;;;;;;;;5078527;28;20180;-71
2023/10/07 01:23:03;;;;;;;19.40;5.97;;;;;;;;;;5088826;28;20187;-73
2023/10/07 01:25:30;;;;;;;15.52;5.95;;;;;;;;;;5097091;28;20230;-72
2023/10/07 01:27:55;;;;;;;13.25;5.68;;;;;;;;;;5103831;28;20764;-74
2023/10/07 01:30:29;;;;;;;19.65;6.30;;;;;;;;;;5091567;28;20232;-71
2023/10/07 01:33:12;;;;;;;16.92;6.63;;;;;;;;;;5104928;28;20198;-72
2023/10/07 01:35:53;;;;;;;12.63;5.90;;;;;;;;;;5109165;28;20214;-72
2023/10/07 01:38:18;;;;;;;14.77;6.40;;;;;;;;;;5071303;28;20192;-73
2023/10/07 01:43:15;;;;;;;18.63;7.10;;;;;;;;;;5088828;28;20191;-73
2023/10/07 01:45:41;;;;;;;18.30;6.30;;;;;;;;;;5068155;28;20175;-68
2023/10/07 01:48:10;;;;;;;16.65;7.05;;;;;;;;;;5109148;28;20193;-71
2023/10/07 01:50:40;;;;;;;17.17;6.85;;;;;;;;;;5096813;28;20208;-72
2023/10/07 01:53:05;;;;;;;21.13;7.13;;;;;;;;;;5090877;28;20212;-69
2023/10/07 01:55:43;;;;;;;18.42;6.57;;;;;;;;;;5087887;28;20306;-71
2023/10/07 01:58:13;;;;;;;18.23;7.40;;;;;;;;;;5090376;28;20202;-72
2023/10/07 02:00:46;;;;;;;17.02;6.75;;;;;;;;;;5081929;28;20516;-67
2023/10/07 02:03:16;;;;;;;23.52;8.30;;;;;;;;;;5088829;28;20556;-71
2023/10/07 02:05:49;;;;;;;20.20;7.80;;;;;;;;;;5086939;28;20291;-72
2023/10/07 02:08:22;;;;;;;21.80;7.63;;;;;;;;;;5070235;28;20179;-72
2023/10/07 02:10:49;;;;;;;21.42;7.85;;;;;;;;;;5094116;28;20229;-73
2023/10/07 02:13:20;;;;;;;19.02;7.65;;;;;;;;;;5054643;28;20202;-72
2023/10/07 02:15:47;;;;;;;19.92;7.93;;;;;;;;;;5086668;28;20192;-73
2023/10/07 02:18:15;;;;;;;22.70;8.20;;;;;;;;;;5063090;28;20184;-71
2023/10/07 02:23:40;;;;;;;20.23;7.90;;;;;;;;;;5091379;28;20275;-72
2023/10/07 02:26:43;;;;;;;17.92;8.30;;;;;;;;;;5074295;28;20223;-73
2023/10/07 02:29:07;;;;;;;16.10;7.97;;;;;;;;;;5090656;28;20192;-73
2023/10/07 02:31:42;;;;;;;20.13;7.70;;;;;;;;;;5099168;28;20183;-71
2023/10/07 02:34:10;;;;;;;16.00;7.85;;;;;;;;;;5078085;28;20209;-71
2023/10/07 02:36:39;;;;;;;20.67;8.65;;;;;;;;;;5075049;28;20227;-71
2023/10/07 02:39:24;;;;;;;22.02;8.35;;;;;;;;;;5091726;28;20313;-72
2023/10/07 02:41:50;;;;;;;26.08;8.43;;;;;;;;;;5057044;28;20321;-69
2023/10/07 02:44:28;;;;;;;17.80;8.40;;;;;;;;;;5091471;28;20192;-71
2023/10/07 02:46:56;;;;;;;19.95;8.25;;;;;;;;;;5086797;28;20194;-69
2023/10/07 02:49:22;;;;;;;21.58;8.55;;;;;;;;;;5092163;28;20207;-71
2023/10/07 02:51:57;;;;;;;21.75;8.95;;;;;;;;;;5099378;28;20195;-71
2023/10/07 02:54:22;;;;;;;17.92;8.48;;;;;;;;;;5069924;28;20196;-72
2023/10/07 02:56:56;;;;;;;21.67;8.23;;;;;;;;;;5082411;28;20196;-72
2023/10/07 02:59:29;;;;;;;17.92;8.85;;;;;;;;;;5086040;28;20219;-74
2023/10/07 03:02:36;;;;;;;21.25;8.88;;;;;;;;;;5087564;28;20299;-74
2023/10/07 03:04:58;;;;;;;19.83;9.48;;;;;;;;;;5099672;28;20594;-73
2023/10/07 03:07:25;;;;;;;21.13;9.13;;;;;;;;;;5095102;28;20196;-71
2023/10/07 03:10:16;;;;;;;19.45;9.05;;;;;;;;;;5072898;28;20280;-72
2023/10/07 03:12:47;;;;;;;24.98;9.15;;;;;;;;;;5087166;28;20196;-73
2023/10/07 03:15:39;;;;;;;21.35;9.77;;;;;;;;;;5105520;28;20613;-75
2023/10/07 03:18:06;;;;;;;21.48;9.52;;;;;;;;;;5099631;28;20666;-70
2023/10/07 03:20:46;;;;;;;23.38;9.32;;;;;;;;;;5097984;28;20208;-73
2023/10/07 03:23:14;;;;;;;22.20;10.20;;;;;;;;;;5061061;28;20191;-69
2023/10/07 03:28:30;;;;;;;22.00;9.77;;;;;;;;;;5078535;28;20278;-71
2023/10/07 03:30:58;;;;;;;23.63;9.77;;;;;;;;;;5088549;28;20467;-71
2023/10/07 03:33:42;;;;;;;19.58;9.73;;;;;;;;;;5079788;28;20180;-73
2023/10/07 03:36:31;;;;;;;28.08;10.70;;;;;;;;;;5052784;28;20199;-72
2023/10/07 03:39:09;;;;;;;25.63;10.65;;;;;;;;;;5090479;28;20218;-72
2023/10/07 03:41:35;;;;;;;24.77;11.77;;;;;;;;;;5095253;28;20206;-72
2023/10/07 03:44:02;;;;;;;24.38;11.23;;;;;;;;;;5092169;28;20274;-73
2023/10/07 03:46:27;;;;;;;26.80;11.73;;;;;;;;;;5096616;28;20196;-70
2023/10/07 03:48:55;;;;;;;21.73;11.90;;;;;;;;;;5087676;28;20188;-71
2023/10/07 03:51:30;;;;;;;30.50;12.32;;;;;;;;;;5089922;28;20179;-71
2023/10/07 03:54:00;;;;;;;24.23;12.02;;;;;;;;;;5076497;28;20396;-69
2023/10/07 03:56:26;;;;;;;27.25;12.75;;;;;;;;;;5096731;28;20555;-72
2023/10/07 03:58:53;;;;;;;29.35;12.38;;;;;;;;;;5068167;28;20271;-72
2023/10/07 04:01:18;;;;;;;26.77;11.98;;;;;;;;;;5068821;28;20300;-71
2023/10/07 04:03:46;;;;;;;30.08;11.98;;;;;;;;;;5082528;28;20314;-73
2023/10/07 04:06:17;;;;;;;19.10;11.60;;;;;;;;;;5078135;28;20249;-72
2023/10/07 04:08:52;;;;;;;32.80;13.00;;;;;;;;;;5066422;28;20181;-74
2023/10/07 04:11:26;;;;;;;25.60;12.70;;;;;;;;;;5078921;28;20227;-73
2023/10/07 04:13:57;;;;;;;21.98;11.25;;;;;;;;;;5082028;28;20192;-69
2023/10/07 04:16:23;;;;;;;25.92;11.38;;;;;;;;;;5079310;28;20187;-71
2023/10/07 04:18:53;;;;;;;23.88;11.93;;;;;;;;;;5073913;28;20192;-73
2023/10/07 04:21:23;;;;;;;26.20;12.70;;;;;;;;;;5078268;28;20187;-71
2023/10/07 04:23:48;;;;;;;25.85;12.50;;;;;;;;;;5082647;28;20270;-73
2023/10/07 04:26:19;;;;;;;26.17;11.98;;;;;;;;;;5090262;28;20201;-74
2023/10/07 04:28:48;;;;;;;25.58;12.15;;;;;;;;;;5068539;28;20201;-73
2023/10/07 04:31:17;;;;;;;26.75;13.02;;;;;;;;;;5103912;28;20285;-73
2023/10/07 04:33:53;;;;;;;19.27;11.35;;;;;;;;;;5084021;28;20671;-69
2023/10/07 04:36:31;;;;;;;23.38;12.38;;;;;;;;;;5091279;28;20180;-71
2023/10/07 04:38:57;;;;;;;30.92;13.55;;;;;;;;;;5090212;28;20195;-72
2023/10/07 04:43:54;;;;;;;27.40;12.93;;;;;;;;;;5087723;28;20192;-73
2023/10/07 04:46:23;;;;;;;28.77;12.63;;;;;;;;;;5077554;28;20195;-72
2023/10/07 04:49:36;;;;;;;29.63;12.95;;;;;;;;;;5084717;28;20225;-71
2023/10/07 04:54:11;;;;;;;25.55;11.32;;;;;;;;;;5082575;28;20276;-72
2023/10/07 04:56:36;;;;;;;26.00;12.27;;;;;;;;;;5080420;28;20191;-71
2023/10/07 04:59:06;;;;;;;29.55;13.15;;;;;;;;;;5085066;28;20207;-71
2023/10/07 05:01:35;;;;;;;27.48;13.02;;;;;;;;;;5071595;28;20215;-72
2023/10/07 05:04:04;;;;;;;27.25;13.80;;;;;;;;;;5093133;28;20219;-69
2023/10/07 05:06:34;;;;;;;20.80;12.23;;;;;;;;;;5065343;28;20251;-72
2023/10/07 05:09:09;;;;;;;25.75;13.68;;;;;;;;;;5072530;28;20246;-71
2023/10/07 05:11:38;;;;;;;26.27;13.35;;;;;;;;;;5089457;28;20678;-73
2023/10/07 05:14:07;;;;;;;25.27;13.00;;;;;;;;;;5091545;28;20579;-71
2023/10/07 05:16:34;;;;;;;26.80;13.20;;;;;;;;;;5100161;28;20194;-71
2023/10/07 05:19:00;;;;;;;23.90;12.77;;;;;;;;;;5070602;28;20192;-71
2023/10/07 05:21:27;;;;;;;26.38;14.23;;;;;;;;;;5069945;28;21553;-69
2023/10/07 05:23:52;;;;;;;22.65;13.88;;;;;;;;;;5084167;28;20219;-72
2023/10/07 05:26:18;;;;;;;30.25;13.55;;;;;;;;;;5083692;28;20647;-70
2023/10/07 05:28:44;;;;;;;31.15;14.77;;;;;;;;;;5084453;28;20184;-71
2023/10/07 05:31:11;;;;;;;28.63;13.98;;;;;;;;;;5084450;28;20682;-68
2023/10/07 05:33:37;;;;;;;26.23;13.95;;;;;;;;;;5089659;28;20483;-72
2023/10/07 05:36:13;;;;;;;31.40;15.88;;;;;;;;;;5106103;28;20313;-72
2023/10/07 05:38:40;;;;;;;30.05;14.88;;;;;;;;;;5092421;28;20672;-72
2023/10/07 05:41:14;;;;;;;31.48;13.23;;;;;;;;;;5094051;28;20181;-72
2023/10/07 05:43:44;;;;;;;30.02;14.15;;;;;;;;;;5093251;28;20265;-71
2023/10/07 05:46:13;;;;;;;27.30;14.73;;;;;;;;;;5094241;28;20244;-70
2023/10/07 05:48:40;;;;;;;32.25;14.13;;;;;;;;;;5091981;28;20207;-69
2023/10/07 05:51:09;;;;;;;23.90;14.73;;;;;;;;;;5096793;28;20234;-70
2023/10/07 05:53:39;;;;;;;31.33;16.20;;;;;;;;;;5090273;28;20249;-72
2023/10/07 05:56:06;;;;;;;33.30;16.55;;;;;;;;;;5086860;28;20187;-71
2023/10/07 05:58:36;;;;;;;30.50;16.77;;;;;;;;;;5074162;28;20219;-71
2023/10/07 06:01:05;;;;;;;31.48;15.98;;;;;;;;;;5084432;28;20208;-71
2023/10/07 06:03:32;;;;;;;31.25;16.40;;;;;;;;;;5088856;28;20228;-70
2023/10/07 06:05:58;;;;;;;28.50;14.43;;;;;;;;;;5072068;28;20588;-69
2023/10/07 06:08:27;;;;;;;31.08;16.02;;;;;;;;;;5091621;28;20188;-70
2023/10/07 06:10:56;;;;;;;31.17;16.77;;;;;;;;;;5082398;28;20265;-71
2023/10/07 06:13:22;;;;;;;36.38;17.90;;;;;;;;;;5092106;28;20192;-73
2023/10/07 06:15:47;;;;;;;36.33;17.65;;;;;;;;;;5081569;28;20279;-72
2023/10/07 06:18:18;;;;;;;33.40;16.08;;;;;;;;;;5064646;28;20267;-72
2023/10/07 06:20:48;;;;;;;41.38;18.75;;;;;;;;;;5081706;28;20280;-72
2023/10/07 06:23:15;;;;;;;35.72;17.40;;;;;;;;;;5062145;28;20208;-71
2023/10/07 06:25:51;;;;;;;30.08;17.50;;;;;;;;;;5086488;28;20180;-72
2023/10/07 06:31:13;;;;;;;31.98;17.77;;;;;;;;;;5085908;28;20203;-70
2023/10/07 06:33:43;;;;;;;35.53;18.58;;;;;;;;;;5089655;28;20202;-73
2023/10/07 06:36:12;;;;;;;35.80;18.50;;;;;;;;;;5088068;28;20188;-71
2023/10/07 06:38:45;;;;;;;33.72;17.88;;;;;;;;;;5086670;28;20212;-68
2023/10/07 06:41:12;;;;;;;40.33;19.25;;;;;;;;;;4428574;28;10001734;-70
2023/10/07 06:43:42;;;;;;;30.48;18.25;;;;;;;;;;5082280;28;20488;-73
2023/10/07 06:46:11;;;;;;;30.63;17.88;;;;;;;;;;5065853;28;20569;-73
2023/10/07 06:48:38;;;;;;;31.80;17.90;;;;;;;;;;5080778;28;20191;-71
2023/10/07 06:51:06;;;;;;;39.58;18.25;;;;;;;;;;5093470;28;20207;-73
2023/10/07 06:53:31;;;;;;;33.40;17.85;;;;;;;;;;5072500;28;20195;-73
2023/10/07 06:56:01;;;;;;;33.58;18.25;;;;;;;;;;5098591;28;20204;-69
2023/10/07 06:58:27;;;;;;;35.10;17.98;;;;;;;;;;5083166;28;20205;-73
2023/10/07 07:00:59;;;;;;;37.92;17.52;;;;;;;;;;5085516;28;20216;-72
2023/10/07 07:03:25;;;;;;;35.38;17.90;;;;;;;;;;5083510;28;20219;-72
2023/10/07 07:05:52;;;;;;;29.70;16.15;;;;;;;;;;5059918;28;20604;-70
2023/10/07 07:08:22;;;;;;;31.45;17.67;;;;;;;;;;5078181;28;20223;-71
2023/10/07 07:10:55;;;;;;;36.78;19.05;;;;;;;;;;5052457;28;20230;-69
2023/10/07 07:13:26;;;;;;;32.83;16.98;;;;;;;;;;5084009;28;20192;-70
2023/10/07 07:16:06;;;;;;;36.13;18.08;;;;;;;;;;5091875;28;20727;-73
2023/10/07 07:18:32;;;;;;;32.78;18.60;;;;;;;;;;5093771;28;20710;-71
2023/10/07 07:21:14;;;;;;;33.10;18.65;;;;;;;;;;5067370;28;20637;-72
2023/10/07 07:23:49;;;;;;;33.60;17.35;;;;;;;;;;5080653;28;20184;-74
2023/10/07 07:26:18;;;;;;;33.22;17.98;;;;;;;;;;5068748;28;20211;-70
2023/10/07 07:28:43;;;;;;;30.55;17.52;;;;;;;;;;5069568;28;20183;-71
2023/10/07 07:31:19;;;;;;;31.67;17.98;;;;;;;;;;5086067;28;20218;-69
2023/10/07 07:33:50;;;;;;;37.75;17.77;;;;;;;;;;5067381;28;20599;-76
2023/10/07 07:36:37;;;;;;;32.33;17.83;;;;;;;;;;5087760;28;20206;-70
2023/10/07 07:39:06;;;;;;;33.38;17.13;;;;;;;;;;5078698;28;20191;-70
2023/10/07 07:41:34;;;;;;;27.00;16.52;;;;;;;;;;5073036;28;20196;-72
2023/10/07 07:44:03;;;;;;;32.30;16.10;;;;;;;;;;5081323;28;20234;-71
2023/10/07 07:46:29;;;;;;;30.42;16.20;;;;;;;;;;5090433;28;20292;-68
2023/10/07 07:49:05;;;;;;;30.73;16.33;;;;;;;;;;5087880;28;20258;-72
2023/10/07 07:51:37;;;;;;;25.35;16.10;;;;;;;;;;5084947;28;20203;-70
2023/10/07 07:54:08;;;;;;;28.42;16.15;;;;;;;;;;5086237;28;20644;-71
2023/10/07 07:56:35;;;;;;;33.38;17.08;;;;;;;;;;5087222;28;20185;-71
2023/10/07 07:59:06;;;;;;;28.92;16.35;;;;;;;;;;5062735;28;20668;-71
2023/10/07 08:01:32;;;;;;;27.10;17.33;;;;;;;;;;5073513;28;20217;-71
2023/10/07 08:04:05;;;;;;;35.63;17.45;;;;;;;;;;5067304;28;20417;-73
2023/10/07 08:06:31;;;;;;;26.17;16.40;;;;;;;;;;5074550;28;20224;-70
2023/10/07 08:08:56;;;;;;;23.63;14.98;;;;;;;;;;5067083;28;20243;-71
2023/10/07 08:11:22;;;;;;;32.25;17.33;;;;;;;;;;5076030;28;20228;-71
2023/10/07 08:13:50;;;;;;;32.15;16.40;;;;;;;;;;5072642;28;20192;-73
2023/10/07 08:16:18;;;;;;;34.50;16.75;;;;;;;;;;5069689;28;20724;-69
2023/10/07 08:18:48;;;;;;;26.58;14.55;;;;;;;;;;5082924;28;20690;-71
2023/10/07 08:21:14;;;;;;;34.90;16.83;;;;;;;;;;5088334;28;20180;-68
2023/10/07 08:23:44;;;;;;;32.33;16.20;;;;;;;;;;5088900;28;20246;-68
2023/10/07 08:26:12;;;;;;;27.10;16.05;;;;;;;;;;5072584;28;20654;-71
2023/10/07 08:28:44;;;;;;;29.85;16.38;;;;;;;;;;5063792;28;20184;-69
2023/10/07 08:31:17;;;;;;;26.33;16.13;;;;;;;;;;5083177;28;20204;-72
2023/10/07 08:33:53;;;;;;;26.88;14.63;;;;;;;;;;5081636;28;20227;-72
2023/10/07 08:36:29;;;;;;;28.48;15.38;;;;;;;;;;5067974;28;20184;-69
2023/10/07 08:38:59;;;;;;;26.33;15.55;;;;;;;;;;5078509;28;20196;-71
2023/10/07 08:41:27;;;;;;;26.65;15.15;;;;;;;;;;5067856;28;20173;-70
2023/10/07 08:44:36;;;;;;;27.30;13.98;;;;;;;;;;5069890;28;20667;-75
2023/10/07 08:47:03;;;;;;;27.90;14.43;;;;;;;;;;5078670;28;20235;-73
2023/10/07 08:49:32;;;;;;;30.35;14.85;;;;;;;;;;5074160;28;20211;-72
2023/10/07 08:51:59;;;;;;;28.00;14.40;;;;;;;;;;5083458;28;20188;-68
2023/10/07 08:54:31;;;;;;;27.35;14.38;;;;;;;;;;5078057;28;20212;-73
2023/10/07 08:57:08;;;;;;;27.85;13.43;;;;;;;;;;5079124;28;20284;-69
2023/10/07 08:59:34;;;;;;;23.38;12.98;;;;;;;;;;5084189;28;20636;-73
2023/10/07 09:02:00;;;;;;;27.25;12.68;;;;;;;;;;5089671;28;20219;-70
2023/10/07 09:04:33;;;;;;;24.15;13.05;;;;;;;;;;5067128;28;20261;-73
2023/10/07 09:07:08;;;;;;;23.30;11.40;;;;;;;;;;5075427;28;20203;-73
2023/10/07 09:09:38;;;;;;;22.58;10.23;;;;;;;;;;5073048;28;20658;-73
2023/10/07 09:12:18;;;;;;;25.02;10.82;;;;;;;;;;5080492;28;20302;-70
2023/10/07 09:14:57;;;;;;;19.90;9.15;;;;;;;;;;5093877;28;20195;-70
2023/10/07 09:17:23;;;;;;;23.05;9.85;;;;;;;;;;5094837;28;20190;-72
2023/10/07 09:19:52;;;;;;;21.90;9.63;;;;;;;;;;5081559;28;20598;-70
2023/10/07 09:22:24;;;;;;;18.88;7.60;;;;;;;;;;5087755;28;20195;-73
2023/10/07 09:24:54;;;;;;;20.92;8.07;;;;;;;;;;5088426;28;20291;-71
2023/10/07 09:27:36;;;;;;;14.02;7.13;;;;;;;;;;5084671;28;20601;-73
2023/10/07 09:30:35;;;;;;;16.00;6.93;;;;;;;;;;5087570;28;20291;-72
2023/10/07 09:32:55;;;;;;;15.60;6.75;;;;;;;;;;5072100;28;20665;-71
2023/10/07 09:35:22;;;;;;;16.23;6.90;;;;;;;;;;5106197;28;20218;-72
2023/10/07 09:37:53;;;;;;;17.30;6.60;;;;;;;;;;5100204;28;20628;-72
2023/10/07 09:40:53;;;;;;;15.68;6.45;;;;;;;;;;5074038;28;20543;-71
2023/10/07 09:43:27;;;;;;;16.50;7.03;;;;;;;;;;5090647;28;20618;-67
2023/10/07 09:45:52;;;;;;;13.65;6.57;;;;;;;;;;5084829;28;20199;-71
2023/10/07 09:48:28;;;;;;;16.75;6.63;;;;;;;;;;5088912;28;20683;-71
2023/10/07 09:50:58;;;;;;;19.58;6.88;;;;;;;;;;5089874;28;20297;-71
2023/10/07 09:53:47;;;;;;;16.02;6.85;;;;;;;;;;5085914;28;20529;-71
2023/10/07 09:56:38;;;;;;;19.77;7.07;;;;;;;;;;5075200;28;20195;-72
2023/10/07 09:59:17;;;;;;;15.70;6.28;;;;;;;;;;5083462;28;20555;-73
2023/10/07 10:01:54;;;;;;;19.48;6.47;;;;;;;;;;5084932;28;20674;-70
2023/10/07 10:04:52;;;;;;;19.88;6.80;;;;;;;;;;5083686;28;20305;-73
2023/10/07 10:07:30;;;;;;;14.02;6.25;;;;;;;;;;5084692;28;20231;-73
2023/10/07 10:10:05;;;;;;;13.80;5.75;;;;;;;;;;5063038;28;20200;-74
2023/10/07 10:17:55;;;;;;;14.70;6.10;;;;;;;;;;5086034;28;20199;-71
2023/10/07 10:20:27;;;;;;;12.70;5.90;;;;;;;;;;5091601;28;20538;-73
2023/10/07 10:23:00;;;;;;;11.75;5.90;;;;;;;;;;5089713;28;20191;-74
2023/10/07 10:28:03;;;;;;;13.13;5.97;;;;;;;;;;5090979;28;20179;-72
2023/10/07 10:30:31;;;;;;;15.50;6.70;;;;;;;;;;5089414;28;20196;-72
2023/10/07 10:33:07;;;;;;;15.55;6.75;;;;;;;;;;5090340;28;20204;-72
2023/10/07 10:35:37;;;;;;;15.68;6.57;;;;;;;;;;5089929;28;20190;-72
2023/10/07 10:38:09;;;;;;;15.00;6.55;;;;;;;;;;5090628;28;20623;-73
2023/10/07 10:40:35;;;;;;;13.77;6.43;;;;;;;;;;5107354;28;20232;-73
2023/10/07 10:43:01;;;;;;;12.70;5.80;;;;;;;;;;5099874;28;20191;-75
2023/10/07 10:45:32;;;;;;;15.80;5.93;;;;;;;;;;5091478;28;20301;-74
2023/10/07 10:48:01;;;;;;;13.57;6.57;;;;;;;;;;5081251;28;20597;-72
2023/10/07 10:50:29;;;;;;;17.38;6.35;;;;;;;;;;5098637;28;20776;-71
2023/10/07 10:52:59;;;;;;;13.40;6.32;;;;;;;;;;5089044;28;20188;-72
2023/10/07 10:55:32;;;;;;;15.93;6.63;;;;;;;;;;5094715;28;20187;-74
2023/10/07 10:57:58;;;;;;;13.20;5.72;;;;;;;;;;5102447;28;20723;-73
2023/10/07 11:00:23;;;;;;;18.65;6.78;;;;;;;;;;5051904;28;20188;-71
2023/10/07 11:02:50;;;;;;;17.88;5.82;;;;;;;;;;5084291;28;20221;-72
2023/10/07 11:05:16;;;;;;;12.50;6.18;;;;;;;;;;5085817;28;20191;-74
2023/10/07 11:07:43;;;;;;;13.63;5.97;;;;;;;;;;5082765;28;20176;-75
2023/10/07 11:10:10;;;;;;;13.70;5.72;;;;;;;;;;5079892;28;20219;-75
2023/10/07 11:12:36;;;;;;;17.02;6.60;;;;;;;;;;5088543;28;20579;-73
2023/10/07 11:15:14;;;;;;;15.27;5.95;;;;;;;;;;5091200;28;20274;-71
2023/10/07 11:17:43;;;;;;;17.90;6.50;;;;;;;;;;5076065;28;20208;-74
2023/10/07 11:20:11;;;;;;;14.95;6.35;;;;;;;;;;5094629;28;20671;-74
2023/10/07 11:22:42;;;;;;;18.05;6.40;;;;;;;;;;5063136;28;20196;-76
2023/10/07 11:25:14;;;;;;;15.50;6.15;;;;;;;;;;5070727;28;20203;-74
2023/10/07 11:27:48;;;;;;;15.90;6.00;;;;;;;;;;5091210;28;20527;-74
2023/10/07 11:30:17;;;;;;;14.23;6.50;;;;;;;;;;5084005;28;20237;-73
2023/10/07 11:32:43;;;;;;;16.20;5.82;;;;;;;;;;5092079;28;20188;-75
2023/10/07 11:35:27;;;;;;;17.10;5.57;;;;;;;;;;5089174;28;20650;-72
2023/10/07 11:37:57;;;;;;;18.45;5.43;;;;;;;;;;5086931;28;20529;-74
2023/10/07 11:40:23;;;;;;;15.52;5.93;;;;;;;;;;5069813;28;20191;-72
2023/10/07 11:42:49;;;;;;;18.20;5.63;;;;;;;;;;5076462;28;21100;-73
2023/10/07 11:45:16;;;;;;;16.92;5.80;;;;;;;;;;5094380;28;20266;-73
2023/10/07 11:47:42;;;;;;;18.63;5.03;;;;;;;;;;5083182;28;20685;-72
2023/10/07 11:50:08;;;;;;;14.57;5.45;;;;;;;;;;5071092;28;20212;-73
2023/10/07 11:52:37;;;;;;;15.15;4.85;;;;;;;;;;5074401;28;20492;-73
2023/10/07 11:55:07;;;;;;;15.45;5.53;;;;;;;;;;5074172;28;20322;-75
2023/10/07 11:57:34;;;;;;;12.90;5.32;;;;;;;;;;5060354;28;20218;-73
2023/10/07 11:59:59;;;;;;;15.02;5.18;;;;;;;;;;5079064;28;20254;-75
2023/10/07 12:02:25;;;;;;;15.57;5.60;;;;;;;;;;5083078;28;20243;-72
2023/10/07 12:04:51;;;;;;;14.48;5.97;;;;;;;;;;5085574;28;20231;-75
2023/10/07 12:07:17;;;;;;;14.95;5.05;;;;;;;;;;5074758;28;20215;-74
2023/10/07 12:09:46;;;;;;;18.20;5.70;;;;;;;;;;5086604;28;20227;-73
2023/10/07 12:12:13;;;;;;;12.43;5.13;;;;;;;;;;5069422;28;20227;-76
2023/10/07 12:14:38;;;;;;;15.35;5.82;;;;;;;;;;5089637;28;20260;-74
2023/10/07 12:17:07;;;;;;;18.75;6.22;;;;;;;;;;5085415;28;20455;-74
2023/10/07 12:19:34;;;;;;;14.95;5.25;;;;;;;;;;5093221;28;20565;-74
2023/10/07 12:22:00;;;;;;;17.10;5.75;;;;;;;;;;5060123;28;20698;-73
2023/10/07 12:24:26;;;;;;;17.52;5.43;;;;;;;;;;5084089;28;20207;-72
2023/10/07 12:26:52;;;;;;;18.20;5.78;;;;;;;;;;5065345;28;20217;-73
2023/10/07 12:29:18;;;;;;;16.45;5.97;;;;;;;;;;5065399;28;20405;-73
2023/10/07 12:31:44;;;;;;;16.65;6.25;;;;;;;;;;5092214;28;20189;-69
2023/10/07 12:34:11;;;;;;;23.67;5.97;;;;;;;;;;5091564;28;20191;-76
2023/10/07 12:36:38;;;;;;;15.38;5.15;;;;;;;;;;5083657;28;20248;-75
2023/10/07 12:39:10;;;;;;;17.83;5.45;;;;;;;;;;5053644;28;20182;-75
2023/10/07 12:41:36;;;;;;;17.60;6.15;;;;;;;;;;5086654;28;20180;-72
2023/10/07 12:44:02;;;;;;;18.65;5.82;;;;;;;;;;5085783;28;20187;-70
2023/10/07 12:46:28;;;;;;;15.45;5.07;;;;;;;;;;5095942;28;20261;-71
2023/10/07 12:48:55;;;;;;;17.48;5.65;;;;;;;;;;5080684;28;20194;-72
2023/10/07 12:51:20;;;;;;;16.80;4.65;;;;;;;;;;5085786;28;20535;-73
2023/10/07 12:53:46;;;;;;;17.33;5.57;;;;;;;;;;5087842;28;20233;-74
2023/10/07 12:56:13;;;;;;;17.52;5.15;;;;;;;;;;5075776;28;20685;-74
2023/10/07 12:58:39;;;;;;;16.42;4.57;;;;;;;;;;5083475;28;20542;-75
2023/10/07 13:01:11;;;;;;;20.42;5.70;;;;;;;;;;5070959;28;20201;-73
2023/10/07 13:03:39;;;;;;;17.38;5.55;;;;;;;;;;5080957;28;20238;-75
2023/10/07 13:06:08;;;;;;;18.48;5.90;;;;;;;;;;5075343;28;20180;-70
2023/10/07 13:08:33;;;;;;;18.98;5.85;;;;;;;;;;5054096;28;20189;-74
2023/10/07 13:11:00;;;;;;;15.15;4.85;;;;;;;;;;5091061;28;20632;-72
2023/10/07 13:13:25;;;;;;;15.65;5.32;;;;;;;;;;5071578;28;20267;-74
2023/10/07 13:15:51;;;;;;;14.75;5.47;;;;;;;;;;5101358;28;20271;-75
2023/10/07 13:18:17;;;;;;;15.73;5.88;;;;;;;;;;5098578;28;20214;-72
2023/10/07 13:20:44;;;;;;;12.70;5.00;;;;;;;;;;5079624;28;20491;-71
2023/10/07 13:23:11;;;;;;;18.08;5.50;;;;;;;;;;5095247;28;20270;-70
2023/10/07 13:25:37;;;;;;;24.55;6.30;;;;;;;;;;5093929;28;20196;-72
2023/10/07 13:28:03;;;;;;;20.20;5.75;;;;;;;;;;5089734;28;20199;-74
2023/10/07 13:30:30;;;;;;;14.18;5.35;;;;;;;;;;5097004;28;20564;-73
2023/10/07 13:32:55;;;;;;;16.35;5.20;;;;;;;;;;5097822;28;20612;-74
2023/10/07 13:35:22;;;;;;;15.88;5.72;;;;;;;;;;5090924;28;20216;-71
2023/10/07 13:37:52;;;;;;;17.83;5.85;;;;;;;;;;5057486;28;20239;-75
2023/10/07 13:40:19;;;;;;;19.73;5.40;;;;;;;;;;5081736;28;20261;-72
2023/10/07 13:42:49;;;;;;;15.18;5.20;;;;;;;;;;5090053;28;20183;-74
2023/10/07 13:45:18;;;;;;;16.67;5.20;;;;;;;;;;5075368;28;20185;-73
2023/10/07 13:47:44;;;;;;;15.98;4.72;;;;;;;;;;5084498;28;20269;-73
2023/10/07 13:50:14;;;;;;;18.05;4.90;;;;;;;;;;5073040;28;20201;-74
2023/10/07 13:52:53;;;;;;;19.85;5.75;;;;;;;;;;5083303;28;20658;-72
2023/10/07 13:55:22;;;;;;;15.57;5.03;;;;;;;;;;5089609;28;20221;-73
2023/10/07 13:57:57;;;;;;;15.77;5.30;;;;;;;;;;5063731;28;20177;-73
2023/10/07 14:03:16;;;;;;;15.45;5.38;;;;;;;;;;5080813;28;20224;-73
2023/10/07 14:05:48;;;;;;;13.27;4.70;;;;;;;;;;5086425;28;20200;-74
2023/10/07 14:08:15;;;;;;;16.38;4.80;;;;;;;;;;5074158;28;20297;-74
2023/10/07 14:10:51;;;;;;;12.98;4.72;;;;;;;;;;5101914;28;20223;-72
2023/10/07 14:13:23;;;;;;;16.67;5.82;;;;;;;;;;5065259;28;20188;-70
2023/10/07 14:15:49;;;;;;;15.55;5.25;;;;;;;;;;5076421;28;20204;-68
2023/10/07 14:18:21;;;;;;;17.73;5.65;;;;;;;;;;5074962;28;20204;-73
2023/10/07 14:20:54;;;;;;;16.98;4.70;;;;;;;;;;5071764;28;20507;-71
2023/10/07 14:23:20;;;;;;;15.55;4.82;;;;;;;;;;5090930;28;20260;-73
2023/10/07 14:25:49;;;;;;;13.07;4.85;;;;;;;;;;5070410;28;20183;-73
2023/10/07 14:28:16;;;;;;;12.23;4.93;;;;;;;;;;5081603;28;20187;-73
2023/10/07 14:30:41;;;;;;;12.07;4.80;;;;;;;;;;5097150;28;20611;-72
2023/10/07 14:33:07;;;;;;;16.13;4.75;;;;;;;;;;5091514;28;20219;-71
2023/10/07 14:35:36;;;;;;;15.60;4.90;;;;;;;;;;5071205;28;20184;-73
2023/10/07 14:38:02;;;;;;;16.65;5.35;;;;;;;;;;5057506;28;20449;-75
2023/10/07 14:40:34;;;;;;;16.50;4.53;;;;;;;;;;5087591;28;20183;-73
2023/10/07 14:42:59;;;;;;;14.13;4.70;;;;;;;;;;5093010;28;20644;-72
2023/10/07 14:45:25;;;;;;;18.05;5.00;;;;;;;;;;5045195;28;20199;-74
2023/10/07 14:47:50;;;;;;;16.92;5.18;;;;;;;;;;5074176;28;20506;-72
2023/10/07 14:50:18;;;;;;;13.30;4.78;;;;;;;;;;5074376;28;20266;-72
2023/10/07 14:52:47;;;;;;;13.93;5.55;;;;;;;;;;5073615;28;20256;-76
2023/10/07 14:55:13;;;;;;;11.88;4.80;;;;;;;;;;5079174;28;20241;-73
2023/10/07 14:57:38;;;;;;;18.00;4.72;;;;;;;;;;5089798;28;20589;-72
2023/10/07 15:00:10;;;;;;;15.48;5.63;;;;;;;;;;5094914;28;20725;-75
2023/10/07 15:02:36;;;;;;;16.35;5.03;;;;;;;;;;5066418;28;20216;-74
2023/10/07 15:05:02;;;;;;;11.45;5.10;;;;;;;;;;5078279;28;20561;-75
2023/10/07 15:07:28;;;;;;;17.38;5.38;;;;;;;;;;5082201;28;20195;-72
2023/10/07 15:09:56;;;;;;;13.93;4.70;;;;;;;;;;5091569;28;20197;-72
2023/10/07 15:12:23;;;;;;;14.18;5.30;;;;;;;;;;5085062;28;20199;-72
2023/10/07 15:14:48;;;;;;;11.90;4.88;;;;;;;;;;5080004;28;20204;-73
2023/10/07 15:17:15;;;;;;;15.05;5.25;;;;;;;;;;5081542;28;20188;-72
2023/10/07 15:19:40;;;;;;;13.32;4.75;;;;;;;;;;5096476;28;20638;-74